createdAt,value
2023-01-05T00:00:23.204Z,0.77
2023-01-05T00:00:57.337Z,0.60
2023-01-05T00:01:33.092Z,0.60
2023-01-05T00:02:07.258Z,0.70
2023-01-05T00:02:40.367Z,0.60
2023-01-05T00:03:15.275Z,0.60
2023-01-05T00:03:48.856Z,0.70
2023-01-05T00:04:23.225Z,0.80
2023-01-05T00:04:58.169Z,0.70
2023-01-05T00:05:31.759Z,0.60
2023-01-05T00:06:07.275Z,0.75
2023-01-05T00:06:42.453Z,0.63
2023-01-05T00:07:17.183Z,1.15
2023-01-05T00:07:50.387Z,0.75
2023-01-05T00:08:24.585Z,0.57
2023-01-05T00:08:58.791Z,0.60
2023-01-05T00:09:32.367Z,0.80
2023-01-05T00:10:29.151Z,0.68
2023-01-05T00:11:23.320Z,0.50
2023-01-05T00:12:15.848Z,0.63
2023-01-05T00:13:09.289Z,0.70
2023-01-05T00:14:01.562Z,0.82
2023-01-05T00:14:53.773Z,0.80
2023-01-05T00:15:45.502Z,0.90
2023-01-05T00:16:38.528Z,0.57
2023-01-05T00:17:31.458Z,0.77
2023-01-05T00:18:23.835Z,0.70
2023-01-05T00:19:15.912Z,0.63
2023-01-05T00:20:09.318Z,0.77
2023-01-05T00:21:01.084Z,0.80
2023-01-05T00:21:53.575Z,0.98
2023-01-05T00:22:34.423Z,0.68
2023-01-05T00:23:09.161Z,0.70
2023-01-05T00:23:44.726Z,0.82
2023-01-05T00:24:19.383Z,0.77
2023-01-05T00:24:56.430Z,0.70
2023-01-05T00:25:32.248Z,0.90
2023-01-05T00:26:08.038Z,0.80
2023-01-05T00:26:41.935Z,0.82
2023-01-05T00:27:17.263Z,0.90
2023-01-05T00:27:52.539Z,0.98
2023-01-05T00:28:27.354Z,1.98
2023-01-05T00:29:02.029Z,1.10
2023-01-05T00:29:37.330Z,1.00
2023-01-05T00:30:12.205Z,0.90
2023-01-05T00:30:48.169Z,0.93
2023-01-05T00:31:22.716Z,0.93
2023-01-05T00:31:58.699Z,0.90
2023-01-05T00:32:31.850Z,0.90
2023-01-05T00:33:05.421Z,0.70
2023-01-05T00:33:40.189Z,0.77
2023-01-05T00:34:15.236Z,0.82
2023-01-05T00:34:50.889Z,0.80
2023-01-05T00:35:25.756Z,0.80
2023-01-05T00:36:00.540Z,0.88
2023-01-05T00:36:34.710Z,0.77
2023-01-05T00:37:09.957Z,0.80
2023-01-05T00:37:43.943Z,0.90
2023-01-05T00:38:19.198Z,0.90
2023-01-05T00:38:54.592Z,0.77
2023-01-05T00:39:28.429Z,0.75
2023-01-05T00:40:04.283Z,0.82
2023-01-05T00:40:38.125Z,0.90
2023-01-05T00:41:13.485Z,0.70
2023-01-05T00:41:47.817Z,0.95
2023-01-05T00:42:21.711Z,0.90
2023-01-05T00:42:58.852Z,0.90
2023-01-05T00:43:32.552Z,0.90
2023-01-05T00:44:07.660Z,0.63
2023-01-05T00:44:42.986Z,0.77
2023-01-05T00:45:18.654Z,1.05
2023-01-05T00:45:53.600Z,0.90
2023-01-05T00:46:27.828Z,1.00
2023-01-05T00:47:02.576Z,1.08
2023-01-05T00:47:37.926Z,0.77
2023-01-05T00:48:11.001Z,1.10
2023-01-05T00:48:46.177Z,0.73
2023-01-05T00:49:19.968Z,1.30
2023-01-05T00:49:54.791Z,1.10
2023-01-05T00:50:28.905Z,0.98
2023-01-05T00:51:04.137Z,0.90
2023-01-05T00:51:39.180Z,1.20
2023-01-05T00:52:13.220Z,0.85
2023-01-05T00:52:48.911Z,0.80
2023-01-05T00:53:23.625Z,1.08
2023-01-05T00:53:58.960Z,1.00
2023-01-05T00:54:32.643Z,1.00
2023-01-05T00:55:05.736Z,0.85
2023-01-05T00:55:41.307Z,0.90
2023-01-05T00:56:14.697Z,1.02
2023-01-05T00:56:49.925Z,2.38
2023-01-05T00:57:24.912Z,1.75
2023-01-05T00:58:02.456Z,0.90
2023-01-05T00:58:36.796Z,0.93
2023-01-05T00:59:12.623Z,0.80
2023-01-05T00:59:45.736Z,0.85
2023-01-05T01:00:22.269Z,0.80
2023-01-05T01:00:57.083Z,1.40
2023-01-05T01:01:31.508Z,0.90
2023-01-05T01:02:06.061Z,1.00
2023-01-05T01:02:40.288Z,1.00
2023-01-05T01:03:13.627Z,1.00
2023-01-05T01:03:48.031Z,1.10
2023-01-05T01:04:23.037Z,1.00
2023-01-05T01:04:56.530Z,0.80
2023-01-05T01:05:31.457Z,1.00
2023-01-05T01:06:06.187Z,0.80
2023-01-05T01:06:40.551Z,1.00
2023-01-05T01:07:15.710Z,1.00
2023-01-05T01:07:50.860Z,0.93
2023-01-05T01:08:24.950Z,1.10
2023-01-05T01:09:00.788Z,1.20
2023-01-05T01:09:34.739Z,0.93
2023-01-05T01:10:10.144Z,1.20
2023-01-05T01:10:43.730Z,0.90
2023-01-05T01:11:17.565Z,0.90
2023-01-05T01:11:53.700Z,1.20
2023-01-05T01:12:28.075Z,1.25
2023-01-05T01:13:04.372Z,0.93
2023-01-05T01:13:39.635Z,0.93
2023-01-05T01:14:14.065Z,0.93
2023-01-05T01:14:49.488Z,1.35
2023-01-05T01:15:23.138Z,0.98
2023-01-05T01:15:56.921Z,1.00
2023-01-05T01:16:31.869Z,1.20
2023-01-05T01:17:06.392Z,1.05
2023-01-05T01:17:41.792Z,1.00
2023-01-05T01:18:16.427Z,1.20
2023-01-05T01:18:50.483Z,1.10
2023-01-05T01:19:25.919Z,1.20
2023-01-05T01:20:00.166Z,1.10
2023-01-05T01:20:35.745Z,0.80
2023-01-05T01:21:10.162Z,1.05
2023-01-05T01:21:43.467Z,0.95
2023-01-05T01:22:18.284Z,1.20
2023-01-05T01:22:51.428Z,0.93
2023-01-05T01:23:27.148Z,0.93
2023-01-05T01:24:02.031Z,1.10
2023-01-05T01:24:36.163Z,1.00
2023-01-05T01:25:11.788Z,1.10
2023-01-05T01:25:46.103Z,1.20
2023-01-05T01:26:20.479Z,0.90
2023-01-05T01:26:56.463Z,1.17
2023-01-05T01:27:30.912Z,1.20
2023-01-05T01:28:07.162Z,0.95
2023-01-05T01:28:41.599Z,1.08
2023-01-05T01:29:18.013Z,1.05
2023-01-05T01:29:54.574Z,1.00
2023-01-05T01:30:29.013Z,1.10
2023-01-05T01:31:02.433Z,1.08
2023-01-05T01:31:35.865Z,1.00
2023-01-05T01:32:10.646Z,1.02
2023-01-05T01:32:46.146Z,1.00
2023-01-05T01:33:19.740Z,1.25
2023-01-05T01:33:54.405Z,1.05
2023-01-05T01:34:28.783Z,1.20
2023-01-05T01:35:02.853Z,1.20
2023-01-05T01:35:39.901Z,1.30
2023-01-05T01:36:14.018Z,1.02
2023-01-05T01:36:49.288Z,1.05
2023-01-05T01:38:03.285Z,1.10
2023-01-05T01:38:39.082Z,1.02
2023-01-05T01:39:13.278Z,1.13
2023-01-05T01:39:51.510Z,1.15
2023-01-05T01:40:25.717Z,1.30
2023-01-05T01:40:58.793Z,1.17
2023-01-05T01:41:33.893Z,1.35
2023-01-05T01:42:13.049Z,1.67
2023-01-05T01:42:49.513Z,1.25
2023-01-05T01:43:37.776Z,1.58
2023-01-05T01:44:26.152Z,1.55
2023-01-05T01:45:02.871Z,1.50
2023-01-05T01:45:38.575Z,1.73
2023-01-05T01:46:13.877Z,2.03
2023-01-05T01:46:48.187Z,1.80
2023-01-05T01:47:26.444Z,2.17
2023-01-05T01:48:01.566Z,2.00
2023-01-05T01:48:37.379Z,2.40
2023-01-05T01:49:12.207Z,2.25
2023-01-05T01:49:46.499Z,2.28
2023-01-05T01:50:21.220Z,1.80
2023-01-05T01:50:56.336Z,2.20
2023-01-05T01:51:32.136Z,2.28
2023-01-05T01:52:08.973Z,2.35
2023-01-05T01:52:43.742Z,2.53
2023-01-05T01:53:21.400Z,2.25
2023-01-05T01:53:58.011Z,2.33
2023-01-05T01:54:31.674Z,2.70
2023-01-05T01:55:08.516Z,2.38
2023-01-05T01:55:42.877Z,2.55
2023-01-05T01:56:18.242Z,2.45
2023-01-05T01:56:54.396Z,2.88
2023-01-05T01:57:27.897Z,3.30
2023-01-05T01:58:03.659Z,3.33
2023-01-05T01:58:36.971Z,3.10
2023-01-05T01:59:10.975Z,3.00
2023-01-05T01:59:45.786Z,2.72
2023-01-05T02:00:21.698Z,2.72
2023-01-05T02:01:03.991Z,2.92
2023-01-05T02:01:37.875Z,2.70
2023-01-05T02:02:12.889Z,2.58
2023-01-05T02:02:48.479Z,3.03
2023-01-05T02:03:26.042Z,3.15
2023-01-05T02:04:02.279Z,2.83
2023-01-05T02:04:39.288Z,3.10
2023-01-05T02:05:14.132Z,2.63
2023-01-05T02:05:49.329Z,2.88
2023-01-05T02:06:22.868Z,3.03
2023-01-05T02:06:56.588Z,2.80
2023-01-05T02:07:32.011Z,2.88
2023-01-05T02:08:06.016Z,2.78
2023-01-05T02:08:40.659Z,2.95
2023-01-05T02:09:14.300Z,2.65
2023-01-05T02:09:47.633Z,3.17
2023-01-05T02:10:29.048Z,2.60
2023-01-05T02:11:11.364Z,2.75
2023-01-05T02:11:50.619Z,2.55
2023-01-05T02:12:33.622Z,2.55
2023-01-05T02:13:19.165Z,2.60
2023-01-05T02:14:18.433Z,2.25
2023-01-05T02:14:59.441Z,2.78
2023-01-05T02:15:41.105Z,2.20
2023-01-05T02:16:22.324Z,2.40
2023-01-05T02:17:03.131Z,2.72
2023-01-05T02:17:42.602Z,2.50
2023-01-05T02:18:22.271Z,2.55
2023-01-05T02:19:00.651Z,2.60
2023-01-05T02:20:03.583Z,2.53
2023-01-05T02:20:52.875Z,2.70
2023-01-05T02:21:30.581Z,2.50
2023-01-05T02:22:16.103Z,2.63
2023-01-05T02:23:07.297Z,2.97
2023-01-05T02:23:47.323Z,2.60
2023-01-05T02:24:49.622Z,2.45
2023-01-05T02:25:34.146Z,2.60
2023-01-05T02:26:23.474Z,2.72
2023-01-05T02:27:22.748Z,2.72
2023-01-05T02:28:01.866Z,2.78
2023-01-05T02:28:45.908Z,2.47
2023-01-05T02:29:41.485Z,3.00
2023-01-05T02:30:33.836Z,2.55
2023-01-05T02:31:13.614Z,3.20
2023-01-05T02:31:56.677Z,2.85
2023-01-05T02:32:35.015Z,2.60
2023-01-05T02:33:14.079Z,3.05
2023-01-05T02:34:11.491Z,3.25
2023-01-05T02:34:50.967Z,2.47
2023-01-05T02:35:28.499Z,3.00
2023-01-05T02:36:05.909Z,2.92
2023-01-05T02:36:44.272Z,3.20
2023-01-05T02:37:21.690Z,3.42
2023-01-05T02:38:00.391Z,3.15
2023-01-05T02:38:37.096Z,2.78
2023-01-05T02:39:15.441Z,3.17
2023-01-05T02:39:52.173Z,3.22
2023-01-05T02:40:28.903Z,3.30
2023-01-05T02:41:08.763Z,3.13
2023-01-05T02:41:48.399Z,2.90
2023-01-05T02:42:25.459Z,3.00
2023-01-05T02:43:01.625Z,3.22
2023-01-05T02:43:35.805Z,2.80
2023-01-05T02:44:12.390Z,3.22
2023-01-05T02:44:45.959Z,3.00
2023-01-05T02:45:19.094Z,2.95
2023-01-05T02:45:53.295Z,3.30
2023-01-05T02:46:28.972Z,3.20
2023-01-05T02:47:05.437Z,3.08
2023-01-05T02:47:43.508Z,3.03
2023-01-05T02:48:18.142Z,3.25
2023-01-05T02:48:54.244Z,3.20
2023-01-05T02:49:29.444Z,3.28
2023-01-05T02:50:05.078Z,3.10
2023-01-05T02:50:43.386Z,3.30
2023-01-05T02:51:20.445Z,3.47
2023-01-05T02:51:57.618Z,3.40
2023-01-05T02:52:34.664Z,3.40
2023-01-05T02:53:09.470Z,3.35
2023-01-05T02:53:47.211Z,3.60
2023-01-05T02:54:24.177Z,3.70
2023-01-05T02:55:02.120Z,3.30
2023-01-05T02:55:38.629Z,3.50
2023-01-05T02:56:14.804Z,3.35
2023-01-05T02:56:53.462Z,3.38
2023-01-05T02:57:43.291Z,3.53
2023-01-05T02:58:19.463Z,3.03
2023-01-05T02:58:58.743Z,3.17
2023-01-05T02:59:35.157Z,3.30
2023-01-05T03:00:12.153Z,3.33
2023-01-05T03:00:51.407Z,3.15
2023-01-05T03:01:31.443Z,3.53
2023-01-05T03:02:08.373Z,3.20
2023-01-05T03:02:44.718Z,3.65
2023-01-05T03:03:21.316Z,3.42
2023-01-05T03:03:58.332Z,3.35
2023-01-05T03:04:35.270Z,3.90
2023-01-05T03:05:12.155Z,4.10
2023-01-05T03:05:49.518Z,3.83
2023-01-05T03:06:25.929Z,3.78
2023-01-05T03:07:00.822Z,3.50
2023-01-05T03:07:39.927Z,3.80
2023-01-05T03:08:29.128Z,3.65
2023-01-05T03:09:09.546Z,3.80
2023-01-05T03:09:44.479Z,3.90
2023-01-05T03:10:38.761Z,3.80
2023-01-05T03:11:31.014Z,3.78
2023-01-05T03:12:26.151Z,4.07
2023-01-05T03:13:19.908Z,4.28
2023-01-05T03:13:57.095Z,4.32
2023-01-05T03:14:33.365Z,4.20
2023-01-05T03:15:11.214Z,4.32
2023-01-05T03:15:47.480Z,5.32
2023-01-05T03:16:24.367Z,4.72
2023-01-05T03:17:04.225Z,5.00
2023-01-05T03:17:42.261Z,5.07
2023-01-05T03:18:18.938Z,5.10
2023-01-05T03:19:14.828Z,5.45
2023-01-05T03:19:50.576Z,5.00
2023-01-05T03:20:25.522Z,4.78
2023-01-05T03:21:03.024Z,4.72
2023-01-05T03:21:55.185Z,5.03
2023-01-05T03:22:49.396Z,4.78
2023-01-05T03:23:41.814Z,5.00
2023-01-05T03:24:34.408Z,5.10
2023-01-05T03:25:28.372Z,5.35
2023-01-05T03:26:22.620Z,5.20
2023-01-05T03:27:15.675Z,4.93
2023-01-05T03:28:07.586Z,4.50
2023-01-05T03:29:01.055Z,4.68
2023-01-05T03:29:58.456Z,12.23
2023-01-05T03:30:54.614Z,4.65
2023-01-05T03:31:51.332Z,4.30
2023-01-05T03:32:47.185Z,3.83
2023-01-05T03:33:43.109Z,3.72
2023-01-05T03:34:37.824Z,2.90
2023-01-05T03:35:33.710Z,3.70
2023-01-05T03:36:10.565Z,3.40
2023-01-05T03:36:50.357Z,3.38
2023-01-05T03:37:25.650Z,3.97
2023-01-05T03:38:00.847Z,3.30
2023-01-05T03:38:39.466Z,3.60
2023-01-05T03:39:13.408Z,4.03
2023-01-05T03:39:49.940Z,3.15
2023-01-05T03:40:25.842Z,3.13
2023-01-05T03:41:02.974Z,3.65
2023-01-05T03:41:38.835Z,3.85
2023-01-05T03:42:13.468Z,3.55
2023-01-05T03:42:47.487Z,3.53
2023-01-05T03:43:23.819Z,3.80
2023-01-05T03:43:58.025Z,3.78
2023-01-05T03:44:33.139Z,3.40
2023-01-05T03:45:07.784Z,3.17
2023-01-05T03:45:43.316Z,3.20
2023-01-05T03:46:25.844Z,4.10
2023-01-05T03:47:00.673Z,4.20
2023-01-05T03:47:35.441Z,3.88
2023-01-05T03:48:10.310Z,3.67
2023-01-05T03:48:43.328Z,3.70
2023-01-05T03:49:18.430Z,3.83
2023-01-05T03:49:52.746Z,3.47
2023-01-05T03:50:26.809Z,4.05
2023-01-05T03:51:02.229Z,3.63
2023-01-05T03:51:41.463Z,4.05
2023-01-05T03:52:16.590Z,3.58
2023-01-05T03:52:50.726Z,4.40
2023-01-05T03:53:24.375Z,4.80
2023-01-05T03:53:59.694Z,4.07
2023-01-05T03:54:37.746Z,4.22
2023-01-05T03:55:11.535Z,3.90
2023-01-05T03:55:48.341Z,4.18
2023-01-05T03:56:22.394Z,4.10
2023-01-05T03:56:56.100Z,3.92
2023-01-05T03:57:30.942Z,3.95
2023-01-05T03:58:06.213Z,3.95
2023-01-05T03:58:40.357Z,3.97
2023-01-05T03:59:15.240Z,4.10
2023-01-05T03:59:50.253Z,4.65
2023-01-05T04:00:25.791Z,3.95
2023-01-05T04:01:08.707Z,4.03
2023-01-05T04:01:45.841Z,4.03
2023-01-05T04:02:21.756Z,3.97
2023-01-05T04:02:58.203Z,3.67
2023-01-05T04:03:33.698Z,3.25
2023-01-05T04:04:10.750Z,3.38
2023-01-05T04:04:45.245Z,3.55
2023-01-05T04:05:18.877Z,3.55
2023-01-05T04:05:53.212Z,3.67
2023-01-05T04:06:28.975Z,3.83
2023-01-05T04:07:03.245Z,4.00
2023-01-05T04:07:40.271Z,3.90
2023-01-05T04:08:14.547Z,3.97
2023-01-05T04:08:49.537Z,3.85
2023-01-05T04:09:23.764Z,3.90
2023-01-05T04:09:57.918Z,3.75
2023-01-05T04:10:33.586Z,3.63
2023-01-05T04:11:16.506Z,3.85
2023-01-05T04:11:56.700Z,3.30
2023-01-05T04:12:31.046Z,4.00
2023-01-05T04:13:05.077Z,4.40
2023-01-05T04:13:40.920Z,4.03
2023-01-05T04:14:15.285Z,4.15
2023-01-05T04:14:49.328Z,3.97
2023-01-05T04:15:25.675Z,5.10
2023-01-05T04:16:01.253Z,4.70
2023-01-05T04:16:34.359Z,4.90
2023-01-05T04:17:16.277Z,4.97
2023-01-05T04:17:50.471Z,4.80
2023-01-05T04:18:26.099Z,4.10
2023-01-05T04:18:59.911Z,3.85
2023-01-05T04:19:32.890Z,3.30
2023-01-05T04:20:09.299Z,4.20
2023-01-05T04:20:43.843Z,3.80
2023-01-05T04:21:20.284Z,4.32
2023-01-05T04:21:57.232Z,4.05
2023-01-05T04:22:32.360Z,4.05
2023-01-05T04:23:07.159Z,4.03
2023-01-05T04:23:42.677Z,3.95
2023-01-05T04:24:16.765Z,4.13
2023-01-05T04:24:52.922Z,3.45
2023-01-05T04:25:28.170Z,3.88
2023-01-05T04:26:42.260Z,3.53
2023-01-05T04:27:17.246Z,12.13
2023-01-05T04:27:50.137Z,4.47
2023-01-05T04:28:25.886Z,3.95
2023-01-05T04:29:04.010Z,4.03
2023-01-05T04:29:40.011Z,3.80
2023-01-05T04:30:16.339Z,3.83
2023-01-05T04:30:51.558Z,3.95
2023-01-05T04:31:26.711Z,4.13
2023-01-05T04:32:04.465Z,4.07
2023-01-05T04:32:38.932Z,3.60
2023-01-05T04:33:17.977Z,3.50
2023-01-05T04:33:53.662Z,3.80
2023-01-05T04:34:30.148Z,4.15
2023-01-05T04:35:10.967Z,3.80
2023-01-05T04:35:48.942Z,3.92
2023-01-05T04:36:23.523Z,4.05
2023-01-05T04:36:57.205Z,4.07
2023-01-05T04:37:32.554Z,3.75
2023-01-05T04:38:07.166Z,4.25
2023-01-05T04:38:40.775Z,3.53
2023-01-05T04:39:17.057Z,3.53
2023-01-05T04:39:50.866Z,3.97
2023-01-05T04:40:24.359Z,4.20
2023-01-05T04:41:02.041Z,3.63
2023-01-05T04:41:35.487Z,3.85
2023-01-05T04:42:10.211Z,4.13
2023-01-05T04:42:45.397Z,4.00
2023-01-05T04:43:20.493Z,3.90
2023-01-05T04:43:56.999Z,4.00
2023-01-05T04:44:31.311Z,4.13
2023-01-05T04:45:09.555Z,3.85
2023-01-05T04:45:45.823Z,4.10
2023-01-05T04:46:21.195Z,4.38
2023-01-05T04:46:56.731Z,3.35
2023-01-05T04:47:31.576Z,4.18
2023-01-05T04:48:06.532Z,3.55
2023-01-05T04:48:40.727Z,3.65
2023-01-05T04:49:17.386Z,3.80
2023-01-05T04:49:53.313Z,3.70
2023-01-05T04:50:30.302Z,4.43
2023-01-05T04:51:04.811Z,4.03
2023-01-05T04:51:42.670Z,4.10
2023-01-05T04:52:17.769Z,3.50
2023-01-05T04:52:52.484Z,3.80
2023-01-05T04:53:27.503Z,3.85
2023-01-05T04:54:02.907Z,3.60
2023-01-05T04:54:38.585Z,3.50
2023-01-05T04:55:14.729Z,4.00
2023-01-05T04:55:50.946Z,4.10
2023-01-05T04:56:26.467Z,3.42
2023-01-05T04:56:59.611Z,4.03
2023-01-05T04:57:34.695Z,3.60
2023-01-05T04:58:11.990Z,4.00
2023-01-05T04:58:47.896Z,4.00
2023-01-05T04:59:22.670Z,3.95
2023-01-05T04:59:58.635Z,4.22
2023-01-05T05:00:34.025Z,4.40
2023-01-05T05:01:09.410Z,3.75
2023-01-05T05:01:44.867Z,4.32
2023-01-05T05:02:22.163Z,4.05
2023-01-05T05:02:59.033Z,4.80
2023-01-05T05:03:34.695Z,4.30
2023-01-05T05:04:11.350Z,5.38
2023-01-05T05:04:47.765Z,5.43
2023-01-05T05:05:21.538Z,5.40
2023-01-05T05:05:59.381Z,4.70
2023-01-05T05:06:34.728Z,4.55
2023-01-05T05:07:09.272Z,5.18
2023-01-05T05:07:44.738Z,5.45
2023-01-05T05:08:20.090Z,5.90
2023-01-05T05:08:55.000Z,5.78
2023-01-05T05:09:30.962Z,5.75
2023-01-05T05:10:06.449Z,5.47
2023-01-05T05:10:40.648Z,5.13
2023-01-05T05:11:16.700Z,6.50
2023-01-05T05:11:53.089Z,18.92
2023-01-05T05:12:29.490Z,6.60
2023-01-05T05:13:04.847Z,5.70
2023-01-05T05:13:39.200Z,5.03
2023-01-05T05:14:13.936Z,5.35
2023-01-05T05:14:49.584Z,7.07
2023-01-05T05:15:24.026Z,6.97
2023-01-05T05:15:58.317Z,6.30
2023-01-05T05:16:35.249Z,6.93
2023-01-05T05:17:11.517Z,7.60
2023-01-05T05:17:45.419Z,8.65
2023-01-05T05:18:22.296Z,7.68
2023-01-05T05:18:58.253Z,7.30
2023-01-05T05:19:34.808Z,6.82
2023-01-05T05:20:12.696Z,7.13
2023-01-05T05:20:49.569Z,7.20
2023-01-05T05:21:24.139Z,6.32
2023-01-05T05:21:58.367Z,6.05
2023-01-05T05:22:33.566Z,5.97
2023-01-05T05:23:09.859Z,6.35
2023-01-05T05:23:44.046Z,6.03
2023-01-05T05:24:18.891Z,5.53
2023-01-05T05:24:53.590Z,5.32
2023-01-05T05:25:26.871Z,4.95
2023-01-05T05:26:02.010Z,4.68
2023-01-05T05:26:36.669Z,4.82
2023-01-05T05:27:11.419Z,4.78
2023-01-05T05:27:44.996Z,4.72
2023-01-05T05:28:19.914Z,5.00
2023-01-05T05:28:55.524Z,4.38
2023-01-05T05:29:29.379Z,5.15
2023-01-05T05:30:03.058Z,4.85
2023-01-05T05:30:38.096Z,4.95
2023-01-05T05:31:12.338Z,4.45
2023-01-05T05:31:46.123Z,4.45
2023-01-05T05:32:21.590Z,4.13
2023-01-05T05:32:55.682Z,4.43
2023-01-05T05:33:30.279Z,4.30
2023-01-05T05:34:05.720Z,3.78
2023-01-05T05:34:40.012Z,3.58
2023-01-05T05:35:16.415Z,4.30
2023-01-05T05:35:51.209Z,3.85
2023-01-05T05:36:25.483Z,4.10
2023-01-05T05:37:00.174Z,4.10
2023-01-05T05:37:34.341Z,4.28
2023-01-05T05:38:10.120Z,4.40
2023-01-05T05:38:43.434Z,3.97
2023-01-05T05:39:18.382Z,4.20
2023-01-05T05:39:53.982Z,4.00
2023-01-05T05:40:29.008Z,4.53
2023-01-05T05:41:03.102Z,4.07
2023-01-05T05:41:38.065Z,4.38
2023-01-05T05:42:12.882Z,4.45
2023-01-05T05:42:56.490Z,4.25
2023-01-05T05:43:31.134Z,4.32
2023-01-05T05:44:07.745Z,4.30
2023-01-05T05:44:47.375Z,4.10
2023-01-05T05:45:23.276Z,4.22
2023-01-05T05:46:00.282Z,4.05
2023-01-05T05:46:34.816Z,4.40
2023-01-05T05:47:09.514Z,4.53
2023-01-05T05:47:44.359Z,3.88
2023-01-05T05:48:19.756Z,4.50
2023-01-05T05:48:56.423Z,3.97
2023-01-05T05:49:33.599Z,3.55
2023-01-05T05:50:10.476Z,4.18
2023-01-05T05:50:47.244Z,4.05
2023-01-05T05:51:21.524Z,3.78
2023-01-05T05:51:55.677Z,4.15
2023-01-05T05:52:32.647Z,3.75
2023-01-05T05:53:12.477Z,4.25
2023-01-05T05:53:48.647Z,3.72
2023-01-05T05:54:23.643Z,3.42
2023-01-05T05:54:58.535Z,3.10
2023-01-05T05:55:31.585Z,3.10
2023-01-05T05:56:08.025Z,4.63
2023-01-05T05:56:41.703Z,3.97
2023-01-05T05:57:18.210Z,3.72
2023-01-05T05:57:52.432Z,4.07
2023-01-05T05:58:26.819Z,3.60
2023-01-05T05:59:01.762Z,3.25
2023-01-05T05:59:37.097Z,3.10
2023-01-05T06:00:12.987Z,4.35
2023-01-05T06:00:49.440Z,3.55
2023-01-05T06:01:24.296Z,3.15
2023-01-05T06:01:58.144Z,3.55
2023-01-05T06:02:31.965Z,3.10
2023-01-05T06:03:07.324Z,3.40
2023-01-05T06:03:41.213Z,3.00
2023-01-05T06:04:15.568Z,3.47
2023-01-05T06:04:51.185Z,3.30
2023-01-05T06:05:25.282Z,2.97
2023-01-05T06:06:03.020Z,3.35
2023-01-05T06:06:39.009Z,2.78
2023-01-05T06:07:15.091Z,3.20
2023-01-05T06:07:48.768Z,2.67
2023-01-05T06:08:24.723Z,3.10
2023-01-05T06:08:58.890Z,3.10
2023-01-05T06:09:32.999Z,3.28
2023-01-05T06:10:09.013Z,3.10
2023-01-05T06:10:42.707Z,3.40
2023-01-05T06:11:18.166Z,3.83
2023-01-05T06:11:51.355Z,4.10
2023-01-05T06:12:24.588Z,4.05
2023-01-05T06:12:59.379Z,4.10
2023-01-05T06:13:33.458Z,4.82
2023-01-05T06:14:07.119Z,4.28
2023-01-05T06:14:42.284Z,4.07
2023-01-05T06:15:17.326Z,4.45
2023-01-05T06:15:51.675Z,4.53
2023-01-05T06:16:27.205Z,4.68
2023-01-05T06:17:01.479Z,4.55
2023-01-05T06:17:35.626Z,4.10
2023-01-05T06:18:10.068Z,4.28
2023-01-05T06:18:43.203Z,4.20
2023-01-05T06:19:16.595Z,4.68
2023-01-05T06:19:51.629Z,4.60
2023-01-05T06:20:25.172Z,4.28
2023-01-05T06:21:02.085Z,4.68
2023-01-05T06:21:36.378Z,4.38
2023-01-05T06:22:10.420Z,4.00
2023-01-05T06:22:45.777Z,3.83
2023-01-05T06:23:20.093Z,4.50
2023-01-05T06:23:56.031Z,4.03
2023-01-05T06:24:29.606Z,4.50
2023-01-05T06:25:04.354Z,3.90
2023-01-05T06:25:37.932Z,4.28
2023-01-05T06:26:12.691Z,4.80
2023-01-05T06:26:47.399Z,4.70
2023-01-05T06:27:21.110Z,4.85
2023-01-05T06:27:55.624Z,4.60
2023-01-05T06:28:30.270Z,4.32
2023-01-05T06:29:04.395Z,4.40
2023-01-05T06:29:40.268Z,4.13
2023-01-05T06:30:15.937Z,4.22
2023-01-05T06:30:50.775Z,4.43
2023-01-05T06:31:25.806Z,4.07
2023-01-05T06:32:01.101Z,3.90
2023-01-05T06:32:35.053Z,4.60
2023-01-05T06:33:09.511Z,3.92
2023-01-05T06:33:44.532Z,4.20
2023-01-05T06:34:18.941Z,4.28
2023-01-05T06:34:52.253Z,4.70
2023-01-05T06:35:26.982Z,4.80
2023-01-05T06:36:02.015Z,4.53
2023-01-05T06:36:36.523Z,4.47
2023-01-05T06:37:11.727Z,4.40
2023-01-05T06:37:45.154Z,4.25
2023-01-05T06:38:21.986Z,4.18
2023-01-05T06:38:55.365Z,4.45
2023-01-05T06:39:30.077Z,4.38
2023-01-05T06:40:04.753Z,4.00
2023-01-05T06:40:40.604Z,3.95
2023-01-05T06:41:16.433Z,4.03
2023-01-05T06:41:50.778Z,4.40
2023-01-05T06:42:25.564Z,4.35
2023-01-05T06:42:59.747Z,4.47
2023-01-05T06:43:36.402Z,4.05
2023-01-05T06:44:11.361Z,4.45
2023-01-05T06:44:47.233Z,4.90
2023-01-05T06:45:22.489Z,4.25
2023-01-05T06:45:59.296Z,4.43
2023-01-05T06:46:34.585Z,4.30
2023-01-05T06:47:08.676Z,4.15
2023-01-05T06:47:43.018Z,3.80
2023-01-05T06:48:18.203Z,4.40
2023-01-05T06:48:52.449Z,4.22
2023-01-05T06:49:25.892Z,4.18
2023-01-05T06:50:00.876Z,4.40
2023-01-05T06:50:34.545Z,4.30
2023-01-05T06:51:10.158Z,4.28
2023-01-05T06:51:44.576Z,3.90
2023-01-05T06:52:20.342Z,3.90
2023-01-05T06:52:54.495Z,4.30
2023-01-05T06:53:29.110Z,4.00
2023-01-05T06:54:04.367Z,4.15
2023-01-05T06:54:37.884Z,4.13
2023-01-05T06:55:12.271Z,3.95
2023-01-05T06:55:47.468Z,4.30
2023-01-05T06:56:22.468Z,3.80
2023-01-05T06:56:56.693Z,3.50
2023-01-05T06:57:30.690Z,4.03
2023-01-05T06:58:05.627Z,3.75
2023-01-05T06:58:40.204Z,3.88
2023-01-05T06:59:15.450Z,4.18
2023-01-05T06:59:49.702Z,3.80
2023-01-05T07:00:24.615Z,4.00
2023-01-05T07:01:00.456Z,4.05
2023-01-05T07:01:34.692Z,4.20
2023-01-05T07:02:14.295Z,4.13
2023-01-05T07:02:49.657Z,4.32
2023-01-05T07:03:25.057Z,4.20
2023-01-05T07:03:58.619Z,5.10
2023-01-05T07:04:34.633Z,4.57
2023-01-05T07:05:09.007Z,4.57
2023-01-05T07:05:42.802Z,4.68
2023-01-05T07:06:19.069Z,4.45
2023-01-05T07:06:53.773Z,5.13
2023-01-05T07:07:28.233Z,4.70
2023-01-05T07:08:03.482Z,4.10
2023-01-05T07:08:37.285Z,4.53
2023-01-05T07:09:11.884Z,4.47
2023-01-05T07:09:49.940Z,3.63
2023-01-05T07:10:24.728Z,3.70
2023-01-05T07:11:00.121Z,4.50
2023-01-05T07:11:33.799Z,4.18
2023-01-05T07:12:09.584Z,4.47
2023-01-05T07:12:44.885Z,5.30
2023-01-05T07:13:19.972Z,4.30
2023-01-05T07:13:53.546Z,4.25
2023-01-05T07:14:27.833Z,3.72
2023-01-05T07:15:02.662Z,3.92
2023-01-05T07:15:36.661Z,4.00
2023-01-05T07:16:10.945Z,4.18
2023-01-05T07:16:45.663Z,4.40
2023-01-05T07:17:19.552Z,4.13
2023-01-05T07:17:54.175Z,4.80
2023-01-05T07:18:28.556Z,4.18
2023-01-05T07:19:03.280Z,5.13
2023-01-05T07:19:37.254Z,4.60
2023-01-05T07:20:11.973Z,4.93
2023-01-05T07:20:47.067Z,4.35
2023-01-05T07:21:22.560Z,4.53
2023-01-05T07:21:57.283Z,5.47
2023-01-05T07:22:31.158Z,4.75
2023-01-05T07:23:06.995Z,4.93
2023-01-05T07:23:40.556Z,4.40
2023-01-05T07:24:14.351Z,4.00
2023-01-05T07:24:50.028Z,4.30
2023-01-05T07:25:23.672Z,4.80
2023-01-05T07:25:59.091Z,5.07
2023-01-05T07:26:33.236Z,4.65
2023-01-05T07:27:09.918Z,4.53
2023-01-05T07:27:44.927Z,4.28
2023-01-05T07:28:18.579Z,4.57
2023-01-05T07:28:53.862Z,4.53
2023-01-05T07:29:27.387Z,4.30
2023-01-05T07:30:01.070Z,4.35
2023-01-05T07:30:35.380Z,4.30
2023-01-05T07:31:08.575Z,4.65
2023-01-05T07:31:42.296Z,3.90
2023-01-05T07:32:17.582Z,3.90
2023-01-05T07:32:50.735Z,4.53
2023-01-05T07:33:26.223Z,4.20
2023-01-05T07:33:59.806Z,4.60
2023-01-05T07:34:34.695Z,4.20
2023-01-05T07:35:09.806Z,4.50
2023-01-05T07:35:44.529Z,4.32
2023-01-05T07:36:18.662Z,4.68
2023-01-05T07:36:54.437Z,4.65
2023-01-05T07:37:29.078Z,5.18
2023-01-05T07:38:05.458Z,4.95
2023-01-05T07:38:39.745Z,4.38
2023-01-05T07:39:14.242Z,5.25
2023-01-05T07:39:49.611Z,4.53
2023-01-05T07:40:23.184Z,4.70
2023-01-05T07:40:59.686Z,5.40
2023-01-05T07:41:34.453Z,4.80
2023-01-05T07:42:09.081Z,4.75
2023-01-05T07:42:44.917Z,4.95
2023-01-05T07:43:18.684Z,4.82
2023-01-05T07:43:52.135Z,5.00
2023-01-05T07:44:26.525Z,5.18
2023-01-05T07:45:00.102Z,4.57
2023-01-05T07:45:36.036Z,4.70
2023-01-05T07:46:10.919Z,4.97
2023-01-05T07:46:44.454Z,4.95
2023-01-05T07:47:20.186Z,4.65
2023-01-05T07:47:53.787Z,4.85
2023-01-05T07:48:30.134Z,4.63
2023-01-05T07:49:04.927Z,5.32
2023-01-05T07:49:39.733Z,5.03
2023-01-05T07:50:14.922Z,5.35
2023-01-05T07:50:49.665Z,5.13
2023-01-05T07:51:24.349Z,4.80
2023-01-05T07:52:01.554Z,5.20
2023-01-05T07:52:35.275Z,5.00
2023-01-05T07:53:09.752Z,5.15
2023-01-05T07:53:45.574Z,5.13
2023-01-05T07:54:22.301Z,4.90
2023-01-05T07:54:59.041Z,5.05
2023-01-05T07:55:33.316Z,5.18
2023-01-05T07:56:09.055Z,5.03
2023-01-05T07:56:46.944Z,5.20
2023-01-05T07:57:22.638Z,5.20
2023-01-05T07:57:56.889Z,5.10
2023-01-05T07:58:32.464Z,5.00
2023-01-05T07:59:05.844Z,4.65
2023-01-05T07:59:39.380Z,5.55
2023-01-05T08:00:15.728Z,5.07
2023-01-05T08:00:51.114Z,6.10
2023-01-05T08:01:26.606Z,5.70
2023-01-05T08:02:00.811Z,5.72
2023-01-05T08:02:36.735Z,5.25
2023-01-05T08:03:11.494Z,5.70
2023-01-05T08:03:47.909Z,5.30
2023-01-05T08:04:22.296Z,4.95
2023-01-05T08:04:56.777Z,5.70
2023-01-05T08:05:34.862Z,5.00
2023-01-05T08:06:11.622Z,5.03
2023-01-05T08:06:45.253Z,5.25
2023-01-05T08:07:22.054Z,5.75
2023-01-05T08:07:56.234Z,5.40
2023-01-05T08:08:30.890Z,5.57